sensor_id;sensor_type;location;lat;lon;timestamp;temperature;humidity
35563;DHT22;21665;40.108;18.302;2023-02-28T00:01:32;11.80;99.90
35563;DHT22;21665;40.108;18.302;2023-02-28T00:03:59;11.90;99.90
35563;DHT22;21665;40.108;18.302;2023-02-28T00:06:26;12.00;99.90
35563;DHT22;21665;40.108;18.302;2023-02-28T00:08:52;12.00;99.90
35563;DHT22;21665;40.108;18.302;2023-02-28T00:11:19;11.90;99.90
35563;DHT22;21665;40.108;18.302;2023-02-28T00:13:48;12.00;99.90
35563;DHT22;21665;40.108;18.302;2023-02-28T00:16:20;12.10;99.90
35563;DHT22;21665;40.108;18.302;2023-02-28T00:18:47;12.10;99.90
35563;DHT22;21665;40.108;18.302;2023-02-28T00:21:15;12.10;99.90
35563;DHT22;21665;40.108;18.302;2023-02-28T00:23:42;12.20;99.90
35563;DHT22;21665;40.108;18.302;2023-02-28T00:26:08;12.30;99.90
35563;DHT22;21665;40.108;18.302;2023-02-28T00:28:37;12.30;99.90
35563;DHT22;21665;40.108;18.302;2023-02-28T00:31:03;12.30;99.90
35563;DHT22;21665;40.108;18.302;2023-02-28T00:33:30;12.30;99.90
35563;DHT22;21665;40.108;18.302;2023-02-28T00:36:05;12.30;99.90
35563;DHT22;21665;40.108;18.302;2023-02-28T00:38:32;12.30;99.90
35563;DHT22;21665;40.108;18.302;2023-02-28T00:41:00;12.30;99.90
35563;DHT22;21665;40.108;18.302;2023-02-28T00:43:36;12.40;99.90
35563;DHT22;21665;40.108;18.302;2023-02-28T00:46:04;12.40;99.90
35563;DHT22;21665;40.108;18.302;2023-02-28T00:48:31;12.50;99.90
35563;DHT22;21665;40.108;18.302;2023-02-28T00:50:57;12.50;99.90
35563;DHT22;21665;40.108;18.302;2023-02-28T00:53:25;12.50;99.90
35563;DHT22;21665;40.108;18.302;2023-02-28T00:55:51;12.50;99.90
35563;DHT22;21665;40.108;18.302;2023-02-28T00:58:18;12.50;99.90
35563;DHT22;21665;40.108;18.302;2023-02-28T01:00:44;12.60;99.90
35563;DHT22;21665;40.108;18.302;2023-02-28T01:03:18;12.60;99.90
35563;DHT22;21665;40.108;18.302;2023-02-28T01:05:45;12.70;99.90
35563;DHT22;21665;40.108;18.302;2023-02-28T01:08:13;12.70;99.90
35563;DHT22;21665;40.108;18.302;2023-02-28T01:10:40;12.70;99.90
35563;DHT22;21665;40.108;18.302;2023-02-28T01:13:07;12.70;99.90
35563;DHT22;21665;40.108;18.302;2023-02-28T01:15:37;12.70;99.90
35563;DHT22;21665;40.108;18.302;2023-02-28T01:18:04;12.70;99.90
35563;DHT22;21665;40.108;18.302;2023-02-28T01:20:31;12.60;99.90
35563;DHT22;21665;40.108;18.302;2023-02-28T01:22:57;12.60;99.90
35563;DHT22;21665;40.108;18.302;2023-02-28T01:25:24;12.60;99.90
35563;DHT22;21665;40.108;18.302;2023-02-28T01:27:51;12.60;99.90
35563;DHT22;21665;40.108;18.302;2023-02-28T01:30:22;12.60;99.90
35563;DHT22;21665;40.108;18.302;2023-02-28T01:32:48;12.60;99.90
35563;DHT22;21665;40.108;18.302;2023-02-28T01:35:18;12.50;99.90
35563;DHT22;21665;40.108;18.302;2023-02-28T01:37:45;12.50;99.90
35563;DHT22;21665;40.108;18.302;2023-02-28T01:40:12;12.50;99.90
35563;DHT22;21665;40.108;18.302;2023-02-28T01:42:39;12.50;99.90
35563;DHT22;21665;40.108;18.302;2023-02-28T01:47:45;12.40;99.90
35563;DHT22;21665;40.108;18.302;2023-02-28T01:50:19;12.40;99.90
35563;DHT22;21665;40.108;18.302;2023-02-28T01:52:48;12.40;99.90
35563;DHT22;21665;40.108;18.302;2023-02-28T01:55:17;12.40;99.90
35563;DHT22;21665;40.108;18.302;2023-02-28T01:57:50;12.30;99.90
35563;DHT22;21665;40.108;18.302;2023-02-28T02:00:21;12.30;99.90
35563;DHT22;21665;40.108;18.302;2023-02-28T02:02:53;12.30;99.90
35563;DHT22;21665;40.108;18.302;2023-02-28T02:05:25;12.40;99.90
35563;DHT22;21665;40.108;18.302;2023-02-28T02:07:55;12.40;99.90
35563;DHT22;21665;40.108;18.302;2023-02-28T02:11:00;12.40;99.90
35563;DHT22;21665;40.108;18.302;2023-02-28T02:14:27;12.40;99.90
35563;DHT22;21665;40.108;18.302;2023-02-28T02:25:18;12.40;99.90
35563;DHT22;21665;40.108;18.302;2023-02-28T02:33:06;12.30;99.90
35563;DHT22;21665;40.108;18.302;2023-02-28T02:35:43;12.30;99.90
35563;DHT22;21665;40.108;18.302;2023-02-28T02:43:50;12.30;99.90
35563;DHT22;21665;40.108;18.302;2023-02-28T02:46:21;12.30;99.90
35563;DHT22;21665;40.108;18.302;2023-02-28T02:48:55;12.30;99.90
35563;DHT22;21665;40.108;18.302;2023-02-28T02:51:23;12.30;99.90
35563;DHT22;21665;40.108;18.302;2023-02-28T02:53:57;12.40;99.90
35563;DHT22;21665;40.108;18.302;2023-02-28T02:56:29;12.30;99.90
35563;DHT22;21665;40.108;18.302;2023-02-28T02:59:01;12.40;99.90
35563;DHT22;21665;40.108;18.302;2023-02-28T03:01:31;12.40;99.90
35563;DHT22;21665;40.108;18.302;2023-02-28T03:04:02;12.50;99.90
35563;DHT22;21665;40.108;18.302;2023-02-28T03:06:29;12.60;99.90
35563;DHT22;21665;40.108;18.302;2023-02-28T03:08:56;12.60;99.90
35563;DHT22;21665;40.108;18.302;2023-02-28T03:11:22;12.60;99.90
35563;DHT22;21665;40.108;18.302;2023-02-28T03:14:07;12.60;99.90
35563;DHT22;21665;40.108;18.302;2023-02-28T03:27:30;12.80;99.90
35563;DHT22;21665;40.108;18.302;2023-02-28T03:32:53;12.80;99.90
35563;DHT22;21665;40.108;18.302;2023-02-28T03:35:24;12.80;99.90
35563;DHT22;21665;40.108;18.302;2023-02-28T03:38:34;12.80;99.90
35563;DHT22;21665;40.108;18.302;2023-02-28T03:43:49;12.80;99.90
35563;DHT22;21665;40.108;18.302;2023-02-28T03:46:20;12.90;99.90
35563;DHT22;21665;40.108;18.302;2023-02-28T03:48:53;12.90;99.90
35563;DHT22;21665;40.108;18.302;2023-02-28T03:51:24;12.90;99.90
35563;DHT22;21665;40.108;18.302;2023-02-28T03:54:04;12.80;99.90
35563;DHT22;21665;40.108;18.302;2023-02-28T03:56:37;12.80;99.90
35563;DHT22;21665;40.108;18.302;2023-02-28T04:02:10;12.80;99.90
35563;DHT22;21665;40.108;18.302;2023-02-28T04:04:36;12.80;99.90
35563;DHT22;21665;40.108;18.302;2023-02-28T04:07:07;12.80;99.90
35563;DHT22;21665;40.108;18.302;2023-02-28T04:09:34;12.90;99.90
35563;DHT22;21665;40.108;18.302;2023-02-28T04:12:01;12.90;99.90
35563;DHT22;21665;40.108;18.302;2023-02-28T04:14:27;12.90;99.90
35563;DHT22;21665;40.108;18.302;2023-02-28T04:16:53;12.90;99.90
35563;DHT22;21665;40.108;18.302;2023-02-28T04:19:20;12.90;99.90
35563;DHT22;21665;40.108;18.302;2023-02-28T04:21:48;12.90;99.90
35563;DHT22;21665;40.108;18.302;2023-02-28T04:24:18;12.90;99.90
35563;DHT22;21665;40.108;18.302;2023-02-28T04:26:48;13.00;99.90
35563;DHT22;21665;40.108;18.302;2023-02-28T04:29:20;13.00;99.90
35563;DHT22;21665;40.108;18.302;2023-02-28T04:31:47;13.00;99.90
35563;DHT22;21665;40.108;18.302;2023-02-28T04:34:16;13.10;99.90
35563;DHT22;21665;40.108;18.302;2023-02-28T04:36:45;13.10;99.90
35563;DHT22;21665;40.108;18.302;2023-02-28T04:39:12;13.10;99.90
35563;DHT22;21665;40.108;18.302;2023-02-28T04:41:41;13.10;99.90
35563;DHT22;21665;40.108;18.302;2023-02-28T04:44:08;13.10;99.90
35563;DHT22;21665;40.108;18.302;2023-02-28T04:46:36;13.10;99.90
35563;DHT22;21665;40.108;18.302;2023-02-28T04:49:03;13.10;99.90
35563;DHT22;21665;40.108;18.302;2023-02-28T04:51:29;13.10;99.90
35563;DHT22;21665;40.108;18.302;2023-02-28T04:53:56;13.10;99.90
35563;DHT22;21665;40.108;18.302;2023-02-28T04:56:22;13.10;99.90
35563;DHT22;21665;40.108;18.302;2023-02-28T04:58:49;13.10;99.90
35563;DHT22;21665;40.108;18.302;2023-02-28T05:03:50;13.00;99.90
35563;DHT22;21665;40.108;18.302;2023-02-28T05:06:17;13.00;99.90
35563;DHT22;21665;40.108;18.302;2023-02-28T05:08:43;12.90;99.90
35563;DHT22;21665;40.108;18.302;2023-02-28T05:11:22;12.90;99.90
35563;DHT22;21665;40.108;18.302;2023-02-28T05:13:50;12.80;99.90
35563;DHT22;21665;40.108;18.302;2023-02-28T05:16:20;12.80;99.90
35563;DHT22;21665;40.108;18.302;2023-02-28T05:18:46;12.80;99.90
35563;DHT22;21665;40.108;18.302;2023-02-28T05:21:40;12.80;99.90
35563;DHT22;21665;40.108;18.302;2023-02-28T05:24:10;12.70;99.90
35563;DHT22;21665;40.108;18.302;2023-02-28T05:26:40;12.80;99.90
35563;DHT22;21665;40.108;18.302;2023-02-28T05:29:08;12.70;99.90
35563;DHT22;21665;40.108;18.302;2023-02-28T05:31:37;12.70;99.90
35563;DHT22;21665;40.108;18.302;2023-02-28T05:34:04;12.70;99.90
35563;DHT22;21665;40.108;18.302;2023-02-28T05:36:30;12.70;99.90
35563;DHT22;21665;40.108;18.302;2023-02-28T05:38:57;12.70;99.90
35563;DHT22;21665;40.108;18.302;2023-02-28T05:41:24;12.70;99.90
35563;DHT22;21665;40.108;18.302;2023-02-28T05:43:52;12.70;99.90
35563;DHT22;21665;40.108;18.302;2023-02-28T05:46:19;12.80;99.90
35563;DHT22;21665;40.108;18.302;2023-02-28T05:48:47;12.70;99.90
35563;DHT22;21665;40.108;18.302;2023-02-28T05:51:16;12.80;99.90
35563;DHT22;21665;40.108;18.302;2023-02-28T05:53:44;12.80;99.90
35563;DHT22;21665;40.108;18.302;2023-02-28T05:56:10;12.80;99.90
35563;DHT22;21665;40.108;18.302;2023-02-28T05:58:39;12.90;99.90
35563;DHT22;21665;40.108;18.302;2023-02-28T06:01:38;12.90;99.90
35563;DHT22;21665;40.108;18.302;2023-02-28T06:04:08;13.00;99.90
35563;DHT22;21665;40.108;18.302;2023-02-28T06:06:58;13.00;99.90
35563;DHT22;21665;40.108;18.302;2023-02-28T06:09:39;13.00;99.90
35563;DHT22;21665;40.108;18.302;2023-02-28T06:12:07;13.10;99.90
35563;DHT22;21665;40.108;18.302;2023-02-28T06:14:35;13.10;99.90
35563;DHT22;21665;40.108;18.302;2023-02-28T06:17:02;13.10;99.90
35563;DHT22;21665;40.108;18.302;2023-02-28T06:19:29;13.10;99.90
35563;DHT22;21665;40.108;18.302;2023-02-28T06:22:15;13.30;99.90
35563;DHT22;21665;40.108;18.302;2023-02-28T06:24:43;13.50;99.90
35563;DHT22;21665;40.108;18.302;2023-02-28T06:27:09;13.50;99.90
35563;DHT22;21665;40.108;18.302;2023-02-28T06:29:36;13.50;99.90
35563;DHT22;21665;40.108;18.302;2023-02-28T06:32:06;13.50;99.90
35563;DHT22;21665;40.108;18.302;2023-02-28T06:34:32;13.60;99.90
35563;DHT22;21665;40.108;18.302;2023-02-28T06:37:02;13.60;99.90
35563;DHT22;21665;40.108;18.302;2023-02-28T06:39:30;13.80;99.90
35563;DHT22;21665;40.108;18.302;2023-02-28T06:41:57;14.00;99.90
35563;DHT22;21665;40.108;18.302;2023-02-28T06:44:24;14.30;99.90
35563;DHT22;21665;40.108;18.302;2023-02-28T06:46:50;14.50;99.90
35563;DHT22;21665;40.108;18.302;2023-02-28T06:49:17;14.80;99.90
35563;DHT22;21665;40.108;18.302;2023-02-28T06:51:45;14.90;99.90
35563;DHT22;21665;40.108;18.302;2023-02-28T06:54:12;14.90;99.90
35563;DHT22;21665;40.108;18.302;2023-02-28T06:56:39;15.20;99.90
35563;DHT22;21665;40.108;18.302;2023-02-28T06:59:06;15.50;99.90
35563;DHT22;21665;40.108;18.302;2023-02-28T07:01:32;15.70;99.90
35563;DHT22;21665;40.108;18.302;2023-02-28T07:04:00;15.90;99.90
35563;DHT22;21665;40.108;18.302;2023-02-28T07:06:27;16.10;99.90
35563;DHT22;21665;40.108;18.302;2023-02-28T07:08:54;16.10;99.90
35563;DHT22;21665;40.108;18.302;2023-02-28T07:11:26;16.00;99.90
35563;DHT22;21665;40.108;18.302;2023-02-28T07:13:56;16.00;99.90
35563;DHT22;21665;40.108;18.302;2023-02-28T07:16:25;16.10;99.90
35563;DHT22;21665;40.108;18.302;2023-02-28T07:18:55;16.10;99.90
35563;DHT22;21665;40.108;18.302;2023-02-28T07:21:23;16.30;99.90
35563;DHT22;21665;40.108;18.302;2023-02-28T07:23:49;16.40;99.90
35563;DHT22;21665;40.108;18.302;2023-02-28T07:26:20;16.10;99.90
35563;DHT22;21665;40.108;18.302;2023-02-28T07:28:47;16.10;99.90
35563;DHT22;21665;40.108;18.302;2023-02-28T07:31:14;16.10;99.90
35563;DHT22;21665;40.108;18.302;2023-02-28T07:33:41;15.90;99.90
35563;DHT22;21665;40.108;18.302;2023-02-28T07:36:11;15.90;99.90
35563;DHT22;21665;40.108;18.302;2023-02-28T07:38:46;15.90;99.90
35563;DHT22;21665;40.108;18.302;2023-02-28T07:41:19;16.10;99.90
35563;DHT22;21665;40.108;18.302;2023-02-28T07:43:54;16.10;99.90
35563;DHT22;21665;40.108;18.302;2023-02-28T08:01:10;16.40;99.90
35563;DHT22;21665;40.108;18.302;2023-02-28T08:03:38;16.70;99.90
35563;DHT22;21665;40.108;18.302;2023-02-28T08:06:07;16.80;99.90
35563;DHT22;21665;40.108;18.302;2023-02-28T08:08:34;17.00;99.90
35563;DHT22;21665;40.108;18.302;2023-02-28T08:11:01;17.00;99.90
35563;DHT22;21665;40.108;18.302;2023-02-28T08:13:29;17.10;99.90
35563;DHT22;21665;40.108;18.302;2023-02-28T08:15:57;17.50;99.90
35563;DHT22;21665;40.108;18.302;2023-02-28T08:18:23;17.70;99.90
35563;DHT22;21665;40.108;18.302;2023-02-28T08:20:59;17.60;99.90
35563;DHT22;21665;40.108;18.302;2023-02-28T08:23:33;17.30;99.90
35563;DHT22;21665;40.108;18.302;2023-02-28T08:26:09;17.10;99.90
35563;DHT22;21665;40.108;18.302;2023-02-28T08:29:48;17.00;99.90
35563;DHT22;21665;40.108;18.302;2023-02-28T08:32:19;16.80;99.90
35563;DHT22;21665;40.108;18.302;2023-02-28T08:37:54;17.30;99.90
35563;DHT22;21665;40.108;18.302;2023-02-28T08:40:21;17.50;99.90
35563;DHT22;21665;40.108;18.302;2023-02-28T08:42:48;17.60;99.90
35563;DHT22;21665;40.108;18.302;2023-02-28T08:45:15;17.90;99.90
35563;DHT22;21665;40.108;18.302;2023-02-28T08:47:41;18.30;99.90
35563;DHT22;21665;40.108;18.302;2023-02-28T08:50:08;18.60;99.90
35563;DHT22;21665;40.108;18.302;2023-02-28T08:52:35;18.80;99.90
35563;DHT22;21665;40.108;18.302;2023-02-28T08:55:27;18.70;99.90
35563;DHT22;21665;40.108;18.302;2023-02-28T08:58:26;18.50;99.90
35563;DHT22;21665;40.108;18.302;2023-02-28T09:00:53;18.10;99.90
35563;DHT22;21665;40.108;18.302;2023-02-28T09:03:57;17.70;99.90
35563;DHT22;21665;40.108;18.302;2023-02-28T09:09:54;17.70;99.90
35563;DHT22;21665;40.108;18.302;2023-02-28T09:12:44;17.70;99.90
35563;DHT22;21665;40.108;18.302;2023-02-28T09:15:16;17.90;99.90
35563;DHT22;21665;40.108;18.302;2023-02-28T09:17:43;17.90;99.90
35563;DHT22;21665;40.108;18.302;2023-02-28T09:20:11;17.50;99.90
35563;DHT22;21665;40.108;18.302;2023-02-28T09:22:38;17.20;99.90
35563;DHT22;21665;40.108;18.302;2023-02-28T09:25:09;17.20;99.90
35563;DHT22;21665;40.108;18.302;2023-02-28T09:27:38;17.40;99.90
35563;DHT22;21665;40.108;18.302;2023-02-28T09:30:06;17.60;99.90
35563;DHT22;21665;40.108;18.302;2023-02-28T09:32:32;17.90;99.90
35563;DHT22;21665;40.108;18.302;2023-02-28T09:34:58;18.30;99.90
35563;DHT22;21665;40.108;18.302;2023-02-28T09:37:25;18.50;99.90
35563;DHT22;21665;40.108;18.302;2023-02-28T09:39:55;18.70;99.90
35563;DHT22;21665;40.108;18.302;2023-02-28T09:49:40;19.00;99.90
35563;DHT22;21665;40.108;18.302;2023-02-28T09:52:17;18.90;99.90
35563;DHT22;21665;40.108;18.302;2023-02-28T09:54:45;18.30;99.90
35563;DHT22;21665;40.108;18.302;2023-02-28T09:57:38;18.00;99.90
35563;DHT22;21665;40.108;18.302;2023-02-28T10:00:29;17.80;99.90
35563;DHT22;21665;40.108;18.302;2023-02-28T10:06:29;17.30;99.90
35563;DHT22;21665;40.108;18.302;2023-02-28T10:11:25;17.30;99.90
35563;DHT22;21665;40.108;18.302;2023-02-28T10:14:20;17.30;99.90
35563;DHT22;21665;40.108;18.302;2023-02-28T10:16:55;17.40;99.90
35563;DHT22;21665;40.108;18.302;2023-02-28T10:19:28;17.60;99.90
35563;DHT22;21665;40.108;18.302;2023-02-28T10:24:42;18.10;99.90
35563;DHT22;21665;40.108;18.302;2023-02-28T10:27:20;18.30;99.90
35563;DHT22;21665;40.108;18.302;2023-02-28T10:29:58;18.50;99.90
35563;DHT22;21665;40.108;18.302;2023-02-28T10:32:38;18.60;99.90
35563;DHT22;21665;40.108;18.302;2023-02-28T10:35:15;18.60;99.90
35563;DHT22;21665;40.108;18.302;2023-02-28T10:37:49;18.70;99.90
35563;DHT22;21665;40.108;18.302;2023-02-28T10:40:45;18.80;99.90
35563;DHT22;21665;40.108;18.302;2023-02-28T10:48:40;18.20;99.90
35563;DHT22;21665;40.108;18.302;2023-02-28T10:51:36;18.10;99.90
35563;DHT22;21665;40.108;18.302;2023-02-28T10:54:03;18.30;99.90
35563;DHT22;21665;40.108;18.302;2023-02-28T10:56:31;18.10;99.90
35563;DHT22;21665;40.108;18.302;2023-02-28T10:59:05;18.00;99.90
35563;DHT22;21665;40.108;18.302;2023-02-28T11:01:48;18.10;99.90
35563;DHT22;21665;40.108;18.302;2023-02-28T11:09:55;19.10;99.90
35563;DHT22;21665;40.108;18.302;2023-02-28T11:12:26;19.10;99.90
35563;DHT22;21665;40.108;18.302;2023-02-28T11:15:05;19.00;99.90
35563;DHT22;21665;40.108;18.302;2023-02-28T11:17:35;19.20;99.90
35563;DHT22;21665;40.108;18.302;2023-02-28T11:20:07;19.40;99.90
35563;DHT22;21665;40.108;18.302;2023-02-28T11:22:44;19.40;99.90
35563;DHT22;21665;40.108;18.302;2023-02-28T11:25:23;19.00;99.90
35563;DHT22;21665;40.108;18.302;2023-02-28T11:27:53;18.80;99.90
35563;DHT22;21665;40.108;18.302;2023-02-28T11:30:36;18.90;99.90
35563;DHT22;21665;40.108;18.302;2023-02-28T11:36:23;19.50;99.90
35563;DHT22;21665;40.108;18.302;2023-02-28T11:39:04;19.10;99.90
35563;DHT22;21665;40.108;18.302;2023-02-28T11:45:00;19.20;99.90
35563;DHT22;21665;40.108;18.302;2023-02-28T11:47:48;19.50;99.90
35563;DHT22;21665;40.108;18.302;2023-02-28T11:53:22;19.80;99.90
35563;DHT22;21665;40.108;18.302;2023-02-28T11:55:59;19.70;99.90
35563;DHT22;21665;40.108;18.302;2023-02-28T12:01:36;19.70;99.90
35563;DHT22;21665;40.108;18.302;2023-02-28T12:09:47;19.90;99.90
35563;DHT22;21665;40.108;18.302;2023-02-28T12:15:27;19.50;99.90
35563;DHT22;21665;40.108;18.302;2023-02-28T12:23:56;19.60;99.90
35563;DHT22;21665;40.108;18.302;2023-02-28T12:30:19;19.60;99.90
35563;DHT22;21665;40.108;18.302;2023-02-28T12:32:51;19.50;99.90
35563;DHT22;21665;40.108;18.302;2023-02-28T12:38:34;19.90;99.90
35563;DHT22;21665;40.108;18.302;2023-02-28T12:44:12;20.20;99.90
35563;DHT22;21665;40.108;18.302;2023-02-28T12:46:50;20.20;99.90
35563;DHT22;21665;40.108;18.302;2023-02-28T12:53:00;20.00;99.90
35563;DHT22;21665;40.108;18.302;2023-02-28T12:55:49;19.60;99.90
35563;DHT22;21665;40.108;18.302;2023-02-28T13:09:32;20.00;99.90
35563;DHT22;21665;40.108;18.302;2023-02-28T13:11:59;20.00;99.90
35563;DHT22;21665;40.108;18.302;2023-02-28T13:14:38;20.10;99.90
35563;DHT22;21665;40.108;18.302;2023-02-28T13:17:12;20.20;99.90
35563;DHT22;21665;40.108;18.302;2023-02-28T13:19:56;20.40;99.90
35563;DHT22;21665;40.108;18.302;2023-02-28T13:27:52;20.40;99.90
35563;DHT22;21665;40.108;18.302;2023-02-28T13:35:47;19.50;99.90
35563;DHT22;21665;40.108;18.302;2023-02-28T13:38:24;19.50;99.90
35563;DHT22;21665;40.108;18.302;2023-02-28T13:40:51;19.50;99.90
35563;DHT22;21665;40.108;18.302;2023-02-28T13:43:18;19.50;99.90
35563;DHT22;21665;40.108;18.302;2023-02-28T13:46:08;19.40;99.90
35563;DHT22;21665;40.108;18.302;2023-02-28T13:48:35;19.60;99.90
35563;DHT22;21665;40.108;18.302;2023-02-28T13:54:06;19.60;99.90
35563;DHT22;21665;40.108;18.302;2023-02-28T13:56:51;19.80;99.90
35563;DHT22;21665;40.108;18.302;2023-02-28T13:59:31;20.00;99.90
35563;DHT22;21665;40.108;18.302;2023-02-28T14:16:44;19.50;99.90
35563;DHT22;21665;40.108;18.302;2023-02-28T14:19:27;19.60;99.90
35563;DHT22;21665;40.108;18.302;2023-02-28T14:33:35;19.20;99.90
35563;DHT22;21665;40.108;18.302;2023-02-28T14:39:27;19.20;99.90
35563;DHT22;21665;40.108;18.302;2023-02-28T14:41:59;18.90;99.90
35563;DHT22;21665;40.108;18.302;2023-02-28T14:44:31;18.80;99.90
35563;DHT22;21665;40.108;18.302;2023-02-28T14:47:02;18.70;99.90
35563;DHT22;21665;40.108;18.302;2023-02-28T14:49:42;18.50;99.90
35563;DHT22;21665;40.108;18.302;2023-02-28T14:52:20;18.40;99.90
35563;DHT22;21665;40.108;18.302;2023-02-28T14:54:59;18.20;99.90
35563;DHT22;21665;40.108;18.302;2023-02-28T14:57:33;18.00;99.90
35563;DHT22;21665;40.108;18.302;2023-02-28T15:00:24;17.80;99.90
35563;DHT22;21665;40.108;18.302;2023-02-28T15:02:59;17.80;99.90
35563;DHT22;21665;40.108;18.302;2023-02-28T15:05:34;17.80;99.90
35563;DHT22;21665;40.108;18.302;2023-02-28T17:05:44;14.20;99.90
35563;DHT22;21665;40.108;18.302;2023-02-28T17:09:02;14.10;99.90
35563;DHT22;21665;40.108;18.302;2023-02-28T17:12:31;14.00;99.90
35563;DHT22;21665;40.108;18.302;2023-02-28T18:19:57;13.10;99.90
35563;DHT22;21665;40.108;18.302;2023-02-28T18:44:21;12.90;99.90
35563;DHT22;21665;40.108;18.302;2023-02-28T18:47:15;13.00;99.90
35563;DHT22;21665;40.108;18.302;2023-02-28T19:04:53;13.00;99.90
35563;DHT22;21665;40.108;18.302;2023-02-28T20:22:15;12.50;99.90
35563;DHT22;21665;40.108;18.302;2023-02-28T20:24:43;12.50;99.90
35563;DHT22;21665;40.108;18.302;2023-02-28T20:27:09;12.40;99.90
35563;DHT22;21665;40.108;18.302;2023-02-28T20:29:36;12.40;99.90
35563;DHT22;21665;40.108;18.302;2023-02-28T20:32:02;12.40;99.90
35563;DHT22;21665;40.108;18.302;2023-02-28T20:34:29;12.30;99.90
35563;DHT22;21665;40.108;18.302;2023-02-28T20:36:58;12.20;99.90
35563;DHT22;21665;40.108;18.302;2023-02-28T20:39:25;12.30;99.90
35563;DHT22;21665;40.108;18.302;2023-02-28T20:41:51;12.30;99.90
35563;DHT22;21665;40.108;18.302;2023-02-28T20:44:18;12.30;99.90
35563;DHT22;21665;40.108;18.302;2023-02-28T20:46:44;12.30;99.90
35563;DHT22;21665;40.108;18.302;2023-02-28T20:49:11;12.30;99.90
35563;DHT22;21665;40.108;18.302;2023-02-28T20:51:41;12.20;99.90
35563;DHT22;21665;40.108;18.302;2023-02-28T20:54:08;12.30;99.90
35563;DHT22;21665;40.108;18.302;2023-02-28T20:56:37;12.20;99.90
35563;DHT22;21665;40.108;18.302;2023-02-28T20:59:04;12.30;99.90
35563;DHT22;21665;40.108;18.302;2023-02-28T21:01:32;12.20;99.90
35563;DHT22;21665;40.108;18.302;2023-02-28T21:04:01;12.30;99.90
35563;DHT22;21665;40.108;18.302;2023-02-28T21:06:31;12.30;99.90
35563;DHT22;21665;40.108;18.302;2023-02-28T21:08:57;12.20;99.90
35563;DHT22;21665;40.108;18.302;2023-02-28T21:11:29;12.30;99.90
35563;DHT22;21665;40.108;18.302;2023-02-28T21:14:14;12.30;99.90
35563;DHT22;21665;40.108;18.302;2023-02-28T21:16:41;12.30;99.90
35563;DHT22;21665;40.108;18.302;2023-02-28T21:19:12;12.30;99.90
35563;DHT22;21665;40.108;18.302;2023-02-28T21:21:40;12.30;99.90
35563;DHT22;21665;40.108;18.302;2023-02-28T21:24:16;12.30;99.90
35563;DHT22;21665;40.108;18.302;2023-02-28T21:26:44;12.30;99.90
35563;DHT22;21665;40.108;18.302;2023-02-28T21:29:11;12.40;99.90
35563;DHT22;21665;40.108;18.302;2023-02-28T21:31:38;12.40;99.90
35563;DHT22;21665;40.108;18.302;2023-02-28T21:34:06;12.40;99.90
35563;DHT22;21665;40.108;18.302;2023-02-28T21:36:38;12.30;99.90
35563;DHT22;21665;40.108;18.302;2023-02-28T21:39:12;12.30;99.90
35563;DHT22;21665;40.108;18.302;2023-02-28T21:41:42;12.30;99.90
35563;DHT22;21665;40.108;18.302;2023-02-28T21:44:10;12.30;99.90
35563;DHT22;21665;40.108;18.302;2023-02-28T21:46:55;12.30;99.90
35563;DHT22;21665;40.108;18.302;2023-02-28T21:49:29;12.20;99.90
35563;DHT22;21665;40.108;18.302;2023-02-28T21:51:57;12.30;99.90
35563;DHT22;21665;40.108;18.302;2023-02-28T21:54:24;12.30;99.90
35563;DHT22;21665;40.108;18.302;2023-02-28T21:57:01;12.30;99.90
35563;DHT22;21665;40.108;18.302;2023-02-28T21:59:28;12.30;99.90
35563;DHT22;21665;40.108;18.302;2023-02-28T22:01:54;12.30;99.90
35563;DHT22;21665;40.108;18.302;2023-02-28T22:04:21;12.30;99.90
35563;DHT22;21665;40.108;18.302;2023-02-28T22:06:52;12.40;99.90
35563;DHT22;21665;40.108;18.302;2023-02-28T22:09:20;12.50;99.90
35563;DHT22;21665;40.108;18.302;2023-02-28T22:11:50;12.50;99.90
35563;DHT22;21665;40.108;18.302;2023-02-28T22:14:17;12.50;99.90
35563;DHT22;21665;40.108;18.302;2023-02-28T22:16:43;12.50;99.90
35563;DHT22;21665;40.108;18.302;2023-02-28T22:19:10;12.50;99.90
35563;DHT22;21665;40.108;18.302;2023-02-28T22:21:37;12.50;99.90
35563;DHT22;21665;40.108;18.302;2023-02-28T22:24:08;12.60;99.90
35563;DHT22;21665;40.108;18.302;2023-02-28T22:26:35;12.50;99.90
35563;DHT22;21665;40.108;18.302;2023-02-28T22:29:04;12.40;99.90
35563;DHT22;21665;40.108;18.302;2023-02-28T22:31:32;12.50;99.90
35563;DHT22;21665;40.108;18.302;2023-02-28T22:34:06;12.70;99.90
35563;DHT22;21665;40.108;18.302;2023-02-28T22:36:34;12.70;99.90
35563;DHT22;21665;40.108;18.302;2023-02-28T22:39:00;12.70;99.90
35563;DHT22;21665;40.108;18.302;2023-02-28T22:41:28;12.60;99.90
35563;DHT22;21665;40.108;18.302;2023-02-28T22:43:57;12.60;99.90
35563;DHT22;21665;40.108;18.302;2023-02-28T22:46:26;12.60;99.90
35563;DHT22;21665;40.108;18.302;2023-02-28T22:48:53;12.70;99.90
35563;DHT22;21665;40.108;18.302;2023-02-28T22:51:22;12.60;99.90
35563;DHT22;21665;40.108;18.302;2023-02-28T22:53:51;12.60;99.90
35563;DHT22;21665;40.108;18.302;2023-02-28T22:56:20;12.60;99.90
35563;DHT22;21665;40.108;18.302;2023-02-28T22:58:49;12.50;99.90
35563;DHT22;21665;40.108;18.302;2023-02-28T23:01:16;12.50;99.90
35563;DHT22;21665;40.108;18.302;2023-02-28T23:03:46;12.40;99.90
35563;DHT22;21665;40.108;18.302;2023-02-28T23:06:36;12.30;99.90
35563;DHT22;21665;40.108;18.302;2023-02-28T23:09:27;12.20;99.90
35563;DHT22;21665;40.108;18.302;2023-02-28T23:11:57;12.20;99.90
35563;DHT22;21665;40.108;18.302;2023-02-28T23:14:26;12.20;99.90
35563;DHT22;21665;40.108;18.302;2023-02-28T23:16:54;12.10;99.90
35563;DHT22;21665;40.108;18.302;2023-02-28T23:19:30;12.10;99.90
35563;DHT22;21665;40.108;18.302;2023-02-28T23:21:58;12.00;99.90
35563;DHT22;21665;40.108;18.302;2023-02-28T23:24:27;11.90;99.90
35563;DHT22;21665;40.108;18.302;2023-02-28T23:26:56;11.90;99.90
35563;DHT22;21665;40.108;18.302;2023-02-28T23:29:24;11.80;99.90
35563;DHT22;21665;40.108;18.302;2023-02-28T23:31:53;11.70;99.90
35563;DHT22;21665;40.108;18.302;2023-02-28T23:34:24;11.70;99.90
35563;DHT22;21665;40.108;18.302;2023-02-28T23:37:00;11.60;99.90
35563;DHT22;21665;40.108;18.302;2023-02-28T23:39:27;11.50;99.90
35563;DHT22;21665;40.108;18.302;2023-02-28T23:41:56;11.40;99.90
35563;DHT22;21665;40.108;18.302;2023-02-28T23:44:28;11.30;99.90
35563;DHT22;21665;40.108;18.302;2023-02-28T23:46:56;11.20;99.90